Time;durP1;ratioP1;P1;durP2;ratioP2;P2;SDS_P1;SDS_P2;PMS_P1;PMS_P2;Temp;Humidity;BMP_temperature;BMP_pressure;BME280_temperature;BME280_humidity;BME280_pressure;Samples;Min_cycle;Max_cycle;Signal;HPM_P1;HPM_P2
2024/01/15 00:03:27;;;;;;;5.47;2.20;;;;;;;;;;10591169;27;20472;-73
2024/01/15 00:08:31;;;;;;;6.93;2.70;;;;;;;;;;10586492;27;20703;-74
2024/01/15 00:13:34;;;;;;;10.57;2.33;;;;;;;;;;10591191;27;20035;-74
2024/01/15 00:18:36;;;;;;;3.80;1.30;;;;;;;;;;10583618;27;20039;-73
2024/01/15 00:23:43;;;;;;;5.97;2.53;;;;;;;;;;10582539;27;20059;-75
2024/01/15 00:28:46;;;;;;;12.73;4.17;;;;;;;;;;10582074;27;20050;-75
2024/01/15 00:33:49;;;;;;;6.97;2.63;;;;;;;;;;10579669;27;20412;-75
2024/01/15 00:38:53;;;;;;;7.90;2.70;;;;;;;;;;10582906;27;20047;-74
2024/01/15 00:43:56;;;;;;;8.88;3.17;;;;;;;;;;10571358;27;20158;-74
2024/01/15 00:48:59;;;;;;;6.23;2.63;;;;;;;;;;10580646;27;20123;-74
2024/01/15 00:54:03;;;;;;;6.83;2.53;;;;;;;;;;10584380;27;20394;-74
2024/01/15 00:59:07;;;;;;;7.90;3.38;;;;;;;;;;10582949;27;20111;-73
2024/01/15 01:04:10;;;;;;;13.25;4.35;;;;;;;;;;10587632;27;20050;-74
2024/01/15 01:09:15;;;;;;;7.20;2.60;;;;;;;;;;10579992;27;20118;-74
2024/01/15 01:14:18;;;;;;;10.98;4.10;;;;;;;;;;10581482;27;20039;-75
2024/01/15 01:19:21;;;;;;;10.60;3.03;;;;;;;;;;10580050;27;20085;-76
2024/01/15 01:24:25;;;;;;;12.07;4.73;;;;;;;;;;10577043;27;20042;-75
2024/01/15 01:29:28;;;;;;;7.55;2.92;;;;;;;;;;10586116;27;20027;-73
2024/01/15 01:34:32;;;;;;;14.63;4.43;;;;;;;;;;10579958;27;20048;-74
2024/01/15 01:39:38;;;;;;;18.47;4.57;;;;;;;;;;10581612;27;20071;-75
2024/01/15 01:44:40;;;;;;;5.93;2.47;;;;;;;;;;10586842;27;20376;-75
2024/01/15 01:49:43;;;;;;;12.47;4.83;;;;;;;;;;10583649;27;20521;-75
2024/01/15 01:54:48;;;;;;;14.67;3.60;;;;;;;;;;10588879;27;20035;-75
2024/01/15 01:59:51;;;;;;;8.60;3.03;;;;;;;;;;10576485;27;20119;-75
2024/01/15 02:04:55;;;;;;;9.40;3.77;;;;;;;;;;10580519;27;20085;-75
2024/01/15 02:10:00;;;;;;;9.63;3.30;;;;;;;;;;10573902;27;20118;-76
2024/01/15 02:15:02;;;;;;;8.77;2.85;;;;;;;;;;10581446;27;20145;-74
2024/01/15 02:20:06;;;;;;;6.80;2.60;;;;;;;;;;10577811;27;20055;-75
2024/01/15 02:25:10;;;;;;;10.70;3.40;;;;;;;;;;10577498;27;20123;-73
2024/01/15 02:30:13;;;;;;;15.73;5.67;;;;;;;;;;10577867;27;20141;-74
2024/01/15 02:35:17;;;;;;;6.47;2.63;;;;;;;;;;10584745;27;20067;-73
2024/01/15 02:40:21;;;;;;;11.97;3.47;;;;;;;;;;10575699;27;20617;-74
2024/01/15 02:45:25;;;;;;;7.37;2.47;;;;;;;;;;10577224;27;20394;-74
2024/01/15 02:50:27;;;;;;;9.57;4.43;;;;;;;;;;10563360;27;20128;-74
2024/01/15 02:55:31;;;;;;;7.13;2.50;;;;;;;;;;10582623;27;20031;-75
2024/01/15 03:00:34;;;;;;;6.45;2.55;;;;;;;;;;10585943;27;20043;-74
2024/01/15 03:05:38;;;;;;;7.27;2.97;;;;;;;;;;10576052;27;20044;-75
2024/01/15 03:10:43;;;;;;;13.50;3.97;;;;;;;;;;10577127;27;20058;-74
2024/01/15 03:15:46;;;;;;;7.03;2.73;;;;;;;;;;10575595;27;20559;-74
2024/01/15 03:20:49;;;;;;;4.13;2.20;;;;;;;;;;10583950;27;20031;-74
2024/01/15 03:25:53;;;;;;;3.97;1.87;;;;;;;;;;10579936;27;20870;-74
2024/01/15 03:30:56;;;;;;;;;;;;;;;;;;10592126;27;20063;-75
2024/01/15 03:35:59;;;;;;;10.13;3.67;;;;;;;;;;10586865;27;19958;-73
2024/01/15 03:41:03;;;;;;;9.95;3.17;;;;;;;;;;10586633;27;20043;-74
2024/01/15 03:46:06;;;;;;;7.28;2.58;;;;;;;;;;10592383;27;20416;-73
2024/01/15 03:51:09;;;;;;;7.40;2.73;;;;;;;;;;10590981;27;20099;-74
2024/01/15 03:56:13;;;;;;;4.10;1.67;;;;;;;;;;10587605;27;20043;-75
2024/01/15 04:01:15;;;;;;;6.57;2.70;;;;;;;;;;10586115;27;20462;-76
2024/01/15 04:06:18;;;;;;;10.17;3.53;;;;;;;;;;10584035;27;20701;-75
2024/01/15 04:11:23;;;;;;;8.23;3.37;;;;;;;;;;10587999;27;20036;-75
2024/01/15 04:16:26;;;;;;;6.93;2.63;;;;;;;;;;10589684;27;20465;-74
2024/01/15 04:21:28;;;;;;;6.73;2.53;;;;;;;;;;10570094;27;20040;-75
2024/01/15 04:26:33;;;;;;;11.00;4.33;;;;;;;;;;10579180;27;20441;-74
2024/01/15 04:31:36;;;;;;;;;;;;;;;;;;10568670;27;20052;-73
2024/01/15 04:36:42;;;;;;;8.90;2.87;;;;;;;;;;10590626;27;19930;-75
2024/01/15 04:41:46;;;;;;;8.40;2.83;;;;;;;;;;10574933;27;20416;-75
2024/01/15 04:46:49;;;;;;;7.43;2.60;;;;;;;;;;10580594;27;20035;-74
2024/01/15 04:51:52;;;;;;;9.60;3.47;;;;;;;;;;10578422;27;20114;-75
2024/01/15 04:56:57;;;;;;;6.37;2.03;;;;;;;;;;10584113;27;20036;-75
2024/01/15 05:01:59;;;;;;;7.68;3.35;;;;;;;;;;10580183;27;20043;-74
2024/01/15 05:07:02;;;;;;;9.23;2.90;;;;;;;;;;10580113;27;20061;-74
2024/01/15 05:12:07;;;;;;;3.80;1.77;;;;;;;;;;10585970;27;20078;-74
2024/01/15 05:17:10;;;;;;;4.33;1.30;;;;;;;;;;10583044;27;20043;-75
2024/01/15 05:22:13;;;;;;;7.40;2.90;;;;;;;;;;10583040;27;20084;-73
2024/01/15 05:27:17;;;;;;;9.60;3.13;;;;;;;;;;10579347;27;20031;-74
2024/01/15 05:32:20;;;;;;;9.13;4.00;;;;;;;;;;10574570;27;20051;-75
2024/01/15 05:37:23;;;;;;;5.87;1.67;;;;;;;;;;10576724;27;20156;-75
2024/01/15 05:42:30;;;;;;;8.43;3.20;;;;;;;;;;10581195;27;20051;-74
2024/01/15 05:47:34;;;;;;;6.70;2.23;;;;;;;;;;10559009;27;20420;-74
2024/01/15 05:52:37;;;;;;;8.33;3.33;;;;;;;;;;10579275;27;20118;-73
2024/01/15 05:57:41;;;;;;;10.33;3.00;;;;;;;;;;10578653;27;20042;-75
2024/01/15 06:02:44;;;;;;;;;;;;;;;;;;10579695;27;20516;-75
2024/01/15 06:07:47;;;;;;;11.20;3.63;;;;;;;;;;10577932;27;19920;-74
2024/01/15 06:12:51;;;;;;;7.33;2.77;;;;;;;;;;10571540;27;20035;-74
2024/01/15 06:17:55;;;;;;;5.40;1.67;;;;;;;;;;10575992;27;20173;-75
2024/01/15 06:22:58;;;;;;;6.17;2.43;;;;;;;;;;10572365;27;20055;-73
2024/01/15 06:28:02;;;;;;;10.90;3.87;;;;;;;;;;10578562;27;20489;-75
2024/01/15 06:33:05;;;;;;;7.03;2.60;;;;;;;;;;10580074;27;20039;-75
2024/01/15 06:38:09;;;;;;;4.70;2.40;;;;;;;;;;10571015;27;20047;-75
2024/01/15 06:43:13;;;;;;;9.17;2.13;;;;;;;;;;10577433;27;20624;-76
2024/01/15 06:48:16;;;;;;;6.40;2.60;;;;;;;;;;10576946;27;20467;-75
2024/01/15 06:53:20;;;;;;;7.20;3.13;;;;;;;;;;10578132;27;20075;-75
2024/01/15 06:58:24;;;;;;;5.22;1.95;;;;;;;;;;10576974;27;20526;-76
2024/01/15 07:03:28;;;;;;;6.33;2.00;;;;;;;;;;10576908;27;20050;-73
2024/01/15 07:08:31;;;;;;;2.37;1.30;;;;;;;;;;10581948;27;20074;-74
2024/01/15 07:13:36;;;;;;;8.53;2.27;;;;;;;;;;10559002;27;20232;-74
2024/01/15 07:18:39;;;;;;;5.77;2.50;;;;;;;;;;10558032;27;20060;-74
2024/01/15 07:23:42;;;;;;;3.83;1.47;;;;;;;;;;10577769;27;21144;-74
2024/01/15 07:28:46;;;;;;;8.53;3.10;;;;;;;;;;10578808;27;20438;-75
2024/01/15 07:33:49;;;;;;;5.53;2.17;;;;;;;;;;10572465;27;20218;-73
2024/01/15 07:38:52;;;;;;;5.83;2.10;;;;;;;;;;10573190;27;20416;-75
2024/01/15 07:43:56;;;;;;;8.43;2.83;;;;;;;;;;10571918;27;20800;-74
2024/01/15 07:48:59;;;;;;;8.35;2.08;;;;;;;;;;10559865;27;20119;-72
2024/01/15 07:54:02;;;;;;;5.03;2.53;;;;;;;;;;10578483;27;20056;-74
2024/01/15 07:59:06;;;;;;;8.20;2.53;;;;;;;;;;10577109;27;20084;-74
2024/01/15 08:04:12;;;;;;;8.68;3.45;;;;;;;;;;10573124;27;20038;-75
2024/01/15 08:09:15;;;;;;;6.20;2.90;;;;;;;;;;10580685;27;20050;-74
2024/01/15 08:14:19;;;;;;;5.43;2.20;;;;;;;;;;10581452;27;20058;-75
2024/01/15 08:19:22;;;;;;;12.05;5.22;;;;;;;;;;10577719;27;20522;-74
2024/01/15 08:24:25;;;;;;;7.83;3.47;;;;;;;;;;10582532;27;20058;-75
2024/01/15 08:29:32;;;;;;;5.57;2.57;;;;;;;;;;10582586;27;20054;-74
2024/01/15 08:34:35;;;;;;;6.00;2.10;;;;;;;;;;10580553;27;20491;-74
2024/01/15 08:39:39;;;;;;;6.60;2.50;;;;;;;;;;10562107;27;20460;-74
2024/01/15 08:44:43;;;;;;;7.17;2.73;;;;;;;;;;10580606;27;20155;-74
2024/01/15 08:50:04;;;;;;;5.67;1.90;;;;;;;;;;10575083;27;20050;-75
2024/01/15 08:55:07;;;;;;;6.00;2.37;;;;;;;;;;10586136;27;20107;-73
2024/01/15 09:00:13;;;;;;;7.53;3.50;;;;;;;;;;10576798;27;20197;-74
2024/01/15 09:05:16;;;;;;;7.40;2.70;;;;;;;;;;10575169;27;20051;-74
2024/01/15 09:10:20;;;;;;;4.30;1.90;;;;;;;;;;10577461;27;20458;-75
2024/01/15 09:15:24;;;;;;;9.43;3.73;;;;;;;;;;10576951;27;20572;-75
2024/01/15 09:20:27;;;;;;;;;;;;;;;;;;10557558;27;20388;-76
2024/01/15 09:25:30;;;;;;;8.07;3.30;;;;;;;;;;10580321;27;19943;-75
2024/01/15 09:30:34;;;;;;;7.00;2.10;;;;;;;;;;10576543;27;20492;-75
2024/01/15 09:35:37;;;;;;;;;;;;;;;;;;10575678;27;20051;-74
2024/01/15 09:40:43;;;;;;;7.83;3.27;;;;;;;;;;10575664;27;19934;-74
2024/01/15 09:45:48;;;;;;;8.33;2.63;;;;;;;;;;10579700;27;20472;-75
2024/01/15 09:50:51;;;;;;;6.00;1.90;;;;;;;;;;10575480;27;20392;-75
2024/01/15 09:55:53;;;;;;;6.77;2.73;;;;;;;;;;10573919;27;20488;-75
2024/01/15 10:00:58;;;;;;;8.07;2.20;;;;;;;;;;10578897;27;20670;-74
2024/01/15 10:06:02;;;;;;;6.17;2.40;;;;;;;;;;10574626;27;20506;-73
2024/01/15 10:11:05;;;;;;;3.95;1.83;;;;;;;;;;10579982;27;20155;-74
2024/01/15 10:16:10;;;;;;;4.33;2.23;;;;;;;;;;10577532;27;20505;-74
2024/01/15 10:21:15;;;;;;;3.63;1.85;;;;;;;;;;10579095;27;20108;-73
2024/01/15 10:26:17;;;;;;;;;;;;;;;;;;10578448;27;20039;-74
2024/01/15 10:31:22;;;;;;;5.70;1.80;;;;;;;;;;10580825;27;19974;-73
2024/01/15 10:36:30;;;;;;;5.55;1.38;;;;;;;;;;10578745;27;20488;-74
2024/01/15 10:41:32;;;;;;;8.03;3.03;;;;;;;;;;10558584;27;20044;-74
2024/01/15 10:46:37;;;;;;;7.10;2.90;;;;;;;;;;10572649;27;20039;-74
2024/01/15 10:51:41;;;;;;;4.97;2.15;;;;;;;;;;10577465;27;20122;-75
2024/01/15 10:56:44;;;;;;;;;;;;;;;;;;10573508;27;20055;-74
2024/01/15 11:01:49;;;;;;;5.85;2.13;;;;;;;;;;10574698;27;20060;-74
2024/01/15 11:06:53;;;;;;;2.83;1.40;;;;;;;;;;10559867;27;20249;-75
2024/01/15 11:12:07;;;;;;;8.35;2.83;;;;;;;;;;10571385;27;20350;-75
2024/01/15 11:17:13;;;;;;;7.07;2.30;;;;;;;;;;10573614;27;20130;-76
2024/01/15 11:22:35;;;;;;;5.63;2.08;;;;;;;;;;10577628;27;20066;-74
2024/01/15 11:27:41;;;;;;;8.05;2.92;;;;;;;;;;10573292;27;20092;-75
2024/01/15 11:32:46;;;;;;;5.80;2.47;;;;;;;;;;10573767;27;20023;-74
2024/01/15 11:37:58;;;;;;;4.80;1.95;;;;;;;;;;10579738;27;20031;-74
2024/01/15 11:43:01;;;;;;;6.60;3.35;;;;;;;;;;10575153;27;20061;-74
2024/01/15 11:48:11;;;;;;;5.13;3.13;;;;;;;;;;10575592;27;20058;-72
2024/01/15 11:53:22;;;;;;;5.15;2.25;;;;;;;;;;10588188;27;20487;-75
2024/01/15 11:58:25;;;;;;;4.00;2.28;;;;;;;;;;10587040;27;20058;-75
2024/01/15 12:03:29;;;;;;;4.83;2.97;;;;;;;;;;10577341;27;20253;-76
2024/01/15 12:08:32;;;;;;;4.28;2.40;;;;;;;;;;10587766;27;20051;-75
2024/01/15 12:13:35;;;;;;;6.35;2.72;;;;;;;;;;10574580;27;20523;-75
2024/01/15 12:18:39;;;;;;;5.97;3.10;;;;;;;;;;10585021;27;20042;-74
2024/01/15 12:23:42;;;;;;;7.47;3.60;;;;;;;;;;10587688;27;20043;-75
2024/01/15 12:28:45;;;;;;;4.25;2.50;;;;;;;;;;10579351;27;20040;-75
2024/01/15 12:33:49;;;;;;;3.27;2.10;;;;;;;;;;10582005;27;20104;-75
2024/01/15 12:38:52;;;;;;;5.28;2.42;;;;;;;;;;10574824;27;20040;-75
2024/01/15 12:43:55;;;;;;;4.03;1.70;;;;;;;;;;10578495;27;20046;-73
2024/01/15 12:48:59;;;;;;;3.75;2.22;;;;;;;;;;10583857;27;20472;-75
2024/01/15 12:54:02;;;;;;;3.58;1.98;;;;;;;;;;10583466;27;20070;-75
2024/01/15 12:59:05;;;;;;;3.47;1.70;;;;;;;;;;10577667;27;20039;-75
2024/01/15 13:04:09;;;;;;;3.40;1.73;;;;;;;;;;10582343;27;20089;-75
2024/01/15 13:09:12;;;;;;;5.05;1.90;;;;;;;;;;10582074;27;20048;-74
2024/01/15 13:14:15;;;;;;;3.88;1.67;;;;;;;;;;10575232;27;20040;-74
2024/01/15 13:19:19;;;;;;;4.03;2.17;;;;;;;;;;10579562;27;20895;-75
2024/01/15 13:24:23;;;;;;;7.53;1.98;;;;;;;;;;10578339;27;20302;-75
2024/01/15 13:29:26;;;;;;;3.58;1.67;;;;;;;;;;10553115;27;20434;-75
2024/01/15 13:34:30;;;;;;;4.20;1.23;;;;;;;;;;10577111;27;20122;-75
2024/01/15 13:39:34;;;;;;;3.50;1.95;;;;;;;;;;10575621;27;20472;-75
2024/01/15 13:44:38;;;;;;;3.65;1.73;;;;;;;;;;10581062;27;20066;-74
2024/01/15 13:49:43;;;;;;;9.88;2.70;;;;;;;;;;10573499;27;20094;-74
2024/01/15 13:54:45;;;;;;;3.53;1.52;;;;;;;;;;10578395;27;20417;-74
2024/01/15 13:59:52;;;;;;;5.95;2.50;;;;;;;;;;10572859;27;20082;-74
2024/01/15 14:04:56;;;;;;;3.10;1.73;;;;;;;;;;10571902;27;20334;-74
2024/01/15 14:09:59;;;;;;;5.47;2.58;;;;;;;;;;10580129;27;20551;-74
2024/01/15 14:15:03;;;;;;;9.63;2.03;;;;;;;;;;10578430;27;20512;-73
2024/01/15 14:20:09;;;;;;;5.93;2.07;;;;;;;;;;10576444;27;20635;-75
2024/01/15 14:25:12;;;;;;;5.60;1.73;;;;;;;;;;10568860;27;20101;-76
2024/01/15 14:30:16;;;;;;;2.65;1.25;;;;;;;;;;10576664;27;20377;-74
2024/01/15 14:35:20;;;;;;;9.75;2.50;;;;;;;;;;10570176;27;20050;-74
2024/01/15 14:40:23;;;;;;;4.53;1.80;;;;;;;;;;10580123;27;20055;-74
2024/01/15 14:45:27;;;;;;;4.32;1.63;;;;;;;;;;10576209;27;20123;-74
2024/01/15 14:50:31;;;;;;;3.65;1.50;;;;;;;;;;10583286;27;20057;-75
2024/01/15 14:55:34;;;;;;;;;;;;;;;;;;10579243;27;20047;-75
2024/01/15 15:00:36;;;;;;;5.17;1.70;;;;;;;;;;10571368;27;19965;-75
2024/01/15 15:05:40;;;;;;;2.97;1.15;;;;;;;;;;10574251;27;20047;-74
2024/01/15 15:10:43;;;;;;;6.47;1.85;;;;;;;;;;10578593;27;20038;-74
2024/01/15 15:15:46;;;;;;;2.43;1.30;;;;;;;;;;10575022;27;20130;-74
2024/01/15 15:20:50;;;;;;;2.10;1.17;;;;;;;;;;10559420;27;20051;-74
2024/01/15 15:25:55;;;;;;;3.10;1.20;;;;;;;;;;10569847;27;20055;-75
2024/01/15 15:30:57;;;;;;;3.00;1.30;;;;;;;;;;10585133;27;20039;-75
2024/01/15 15:36:04;;;;;;;4.77;1.63;;;;;;;;;;10578324;27;20039;-75
2024/01/15 15:41:08;;;;;;;3.30;1.45;;;;;;;;;;10579477;27;20489;-75
2024/01/15 15:46:11;;;;;;;3.30;1.27;;;;;;;;;;10581746;27;20127;-75
2024/01/15 15:51:15;;;;;;;3.77;1.43;;;;;;;;;;10590489;27;20069;-75
2024/01/15 15:56:18;;;;;;;;;;;;;;;;;;10571882;27;20137;-75
2024/01/15 16:01:21;;;;;;;5.30;2.13;;;;;;;;;;10574380;27;19975;-75
2024/01/15 16:06:26;;;;;;;7.10;2.35;;;;;;;;;;10581250;27;20610;-74
2024/01/15 16:11:29;;;;;;;4.13;1.55;;;;;;;;;;10576463;27;20062;-74
2024/01/15 16:16:32;;;;;;;7.33;2.63;;;;;;;;;;10575133;27;20217;-75
2024/01/15 16:21:57;;;;;;;5.00;1.87;;;;;;;;;;10580228;27;20157;-74
2024/01/15 16:27:20;;;;;;;4.00;1.77;;;;;;;;;;10575312;27;20063;-75
2024/01/15 16:32:23;;;;;;;6.77;3.03;;;;;;;;;;10584722;27;20047;-76
2024/01/15 16:37:27;;;;;;;9.47;3.40;;;;;;;;;;10578095;27;20039;-73
2024/01/15 16:42:30;;;;;;;5.53;2.10;;;;;;;;;;10580819;27;20096;-75
2024/01/15 16:47:33;;;;;;;6.57;2.47;;;;;;;;;;10585010;27;20106;-74
2024/01/15 16:52:37;;;;;;;3.90;1.80;;;;;;;;;;10578203;27;20491;-75
2024/01/15 16:57:39;;;;;;;4.10;2.10;;;;;;;;;;10584865;27;20035;-75
2024/01/15 17:02:42;;;;;;;7.87;2.83;;;;;;;;;;10573983;27;20120;-74
2024/01/15 17:07:47;;;;;;;6.63;1.60;;;;;;;;;;10568176;27;20124;-76
2024/01/15 17:12:49;;;;;;;2.78;1.23;;;;;;;;;;10567017;27;20045;-75
2024/01/15 17:17:52;;;;;;;11.87;3.93;;;;;;;;;;10573104;27;22247;-75
2024/01/15 17:22:56;;;;;;;8.30;2.97;;;;;;;;;;10571042;27;20440;-74
2024/01/15 17:27:59;;;;;;;;;;;;;;;;;;10587501;27;20693;-74
2024/01/15 17:33:02;;;;;;;3.77;1.67;;;;;;;;;;10594396;27;19927;-73
2024/01/15 17:38:06;;;;;;;1.63;1.10;;;;;;;;;;10598302;27;20047;-76
2024/01/15 17:43:10;;;;;;;2.63;1.48;;;;;;;;;;10594703;27;20049;-74
2024/01/15 17:48:12;;;;;;;1.80;0.70;;;;;;;;;;10603451;27;20066;-74
2024/01/15 17:53:17;;;;;;;2.07;0.93;;;;;;;;;;10605817;27;20495;-75
2024/01/15 17:58:20;;;;;;;3.47;1.20;;;;;;;;;;10602171;27;20470;-74
2024/01/15 18:03:23;;;;;;;2.70;0.97;;;;;;;;;;10588825;27;20068;-76
2024/01/15 18:08:27;;;;;;;1.50;1.10;;;;;;;;;;10602662;27;20062;-74
2024/01/15 18:13:29;;;;;;;1.25;0.68;;;;;;;;;;10588288;27;20130;-74
2024/01/15 18:18:32;;;;;;;3.53;1.87;;;;;;;;;;10592037;27;20043;-75
2024/01/15 18:23:36;;;;;;;4.20;1.53;;;;;;;;;;10603154;27;20379;-76
2024/01/15 18:28:39;;;;;;;4.35;2.60;;;;;;;;;;10588116;27;20039;-74
2024/01/15 18:33:42;;;;;;;3.87;2.00;;;;;;;;;;10605042;27;20117;-75
2024/01/15 18:38:46;;;;;;;4.33;2.23;;;;;;;;;;10596611;27;20092;-75
2024/01/15 18:43:49;;;;;;;2.47;1.40;;;;;;;;;;10600978;27;20041;-74
2024/01/15 18:48:52;;;;;;;4.07;2.07;;;;;;;;;;10602102;27;20114;-75
2024/01/15 18:53:57;;;;;;;4.80;1.93;;;;;;;;;;10596077;27;20512;-74
2024/01/15 18:58:59;;;;;;;4.93;2.00;;;;;;;;;;10601766;27;20063;-74
2024/01/15 19:04:02;;;;;;;7.43;3.30;;;;;;;;;;10603265;27;20100;-74
2024/01/15 19:09:06;;;;;;;4.37;2.00;;;;;;;;;;10591723;27;20054;-75
2024/01/15 19:14:10;;;;;;;7.17;2.63;;;;;;;;;;10595265;27;20085;-75
2024/01/15 19:19:13;;;;;;;7.93;2.47;;;;;;;;;;10598777;27;20137;-75
2024/01/15 19:24:17;;;;;;;3.13;1.47;;;;;;;;;;10598006;27;20031;-75
2024/01/15 19:29:20;;;;;;;;;;;;;;;;;;10599332;27;20586;-75
2024/01/15 19:34:23;;;;;;;2.70;1.67;;;;;;;;;;10591744;27;21450;-75
2024/01/15 19:39:28;;;;;;;5.97;1.13;;;;;;;;;;10602748;27;20044;-75
2024/01/15 19:44:31;;;;;;;6.13;2.23;;;;;;;;;;10590728;27;20493;-76
2024/01/15 19:49:34;;;;;;;6.70;2.37;;;;;;;;;;10594208;27;20122;-75
2024/01/15 19:54:38;;;;;;;4.37;2.17;;;;;;;;;;10600646;27;20507;-75
2024/01/15 19:59:40;;;;;;;3.55;1.60;;;;;;;;;;10598533;27;20051;-75
2024/01/15 20:04:43;;;;;;;8.97;1.77;;;;;;;;;;10599190;27;20236;-74
2024/01/15 20:09:47;;;;;;;4.87;2.53;;;;;;;;;;10602203;27;20054;-76
2024/01/15 20:14:50;;;;;;;;;;;;;;;;;;10608874;27;20039;-75
2024/01/15 20:19:54;;;;;;;2.90;1.70;;;;;;;;;;10586120;27;19927;-75
2024/01/15 20:24:58;;;;;;;5.28;2.13;;;;;;;;;;10601777;27;20043;-74
2024/01/15 20:30:04;;;;;;;4.05;1.73;;;;;;;;;;10601237;27;20134;-75
2024/01/15 20:35:08;;;;;;;7.77;2.13;;;;;;;;;;10601327;27;20039;-74
2024/01/15 20:40:13;;;;;;;2.53;1.30;;;;;;;;;;10601967;27;20401;-77
2024/01/15 20:45:16;;;;;;;3.50;1.60;;;;;;;;;;10604982;27;20043;-74
2024/01/15 20:50:19;;;;;;;3.10;1.03;;;;;;;;;;10599469;27;20684;-75
2024/01/15 20:55:23;;;;;;;4.50;1.80;;;;;;;;;;10600744;27;20084;-75
2024/01/15 21:00:27;;;;;;;2.65;1.52;;;;;;;;;;10593962;27;20047;-76
2024/01/15 21:05:31;;;;;;;5.47;2.70;;;;;;;;;;10590178;27;20043;-74
2024/01/15 21:10:42;;;;;;;4.67;1.63;;;;;;;;;;10578676;27;20043;-74
2024/01/15 21:15:46;;;;;;;5.03;1.77;;;;;;;;;;10580982;27;20047;-74
2024/01/15 21:20:49;;;;;;;3.97;1.60;;;;;;;;;;10569477;27;20473;-75
2024/01/15 21:25:53;;;;;;;7.70;2.40;;;;;;;;;;10573902;27;20505;-74
2024/01/15 21:31:00;;;;;;;7.77;2.67;;;;;;;;;;10578788;27;20065;-74
2024/01/15 21:36:03;;;;;;;3.65;2.30;;;;;;;;;;10572544;27;20114;-76
2024/01/15 21:41:08;;;;;;;3.00;1.73;;;;;;;;;;10552573;27;20529;-75
2024/01/15 21:46:10;;;;;;;;;;;;;;;;;;10567452;27;20461;-75
2024/01/15 21:51:13;;;;;;;4.30;2.10;;;;;;;;;;10572425;27;19927;-75
2024/01/15 21:56:17;;;;;;;8.37;3.30;;;;;;;;;;10565756;27;20130;-76
2024/01/15 22:01:19;;;;;;;;;;;;;;;;;;10573771;27;20088;-75
2024/01/15 22:06:22;;;;;;;7.43;2.73;;;;;;;;;;10572043;27;19946;-74
2024/01/15 22:11:26;;;;;;;5.83;2.70;;;;;;;;;;10573772;27;20047;-75
2024/01/15 22:16:29;;;;;;;;;;;;;;;;;;10574130;27;20040;-75
2024/01/15 22:21:32;;;;;;;4.90;2.43;;;;;;;;;;10574932;27;19923;-76
2024/01/15 22:26:36;;;;;;;5.90;2.70;;;;;;;;;;10569469;27;20147;-75
2024/01/15 22:31:41;;;;;;;4.90;2.07;;;;;;;;;;10569603;27;20472;-75
2024/01/15 22:36:43;;;;;;;3.90;2.10;;;;;;;;;;10570601;27;20042;-75
2024/01/15 22:41:48;;;;;;;3.47;1.50;;;;;;;;;;10578279;27;20120;-75
2024/01/15 22:46:50;;;;;;;;;;;;;;;;;;10577530;27;20051;-75
2024/01/15 22:51:53;;;;;;;6.37;2.20;;;;;;;;;;10574818;27;19924;-75
2024/01/15 22:56:57;;;;;;;3.87;1.70;;;;;;;;;;10577381;27;20146;-75
2024/01/15 23:01:59;;;;;;;;;;;;;;;;;;10571345;27;20039;-74
2024/01/15 23:07:02;;;;;;;3.50;1.63;;;;;;;;;;10575106;27;20007;-75
2024/01/15 23:12:07;;;;;;;2.30;1.20;;;;;;;;;;10570325;27;20729;-75
2024/01/15 23:17:10;;;;;;;3.90;1.63;;;;;;;;;;10570853;27;20063;-75
2024/01/15 23:22:13;;;;;;;4.03;2.20;;;;;;;;;;10581325;27;20149;-77
2024/01/15 23:27:17;;;;;;;3.03;1.27;;;;;;;;;;10575638;27;20460;-76
2024/01/15 23:32:20;;;;;;;3.90;1.10;;;;;;;;;;10573048;27;20134;-74
2024/01/15 23:37:22;;;;;;;2.47;1.40;;;;;;;;;;10567017;27;20043;-74
2024/01/15 23:42:27;;;;;;;4.20;1.67;;;;;;;;;;10550839;27;20047;-75
2024/01/15 23:47:29;;;;;;;2.37;1.20;;;;;;;;;;10577396;27;20553;-75
2024/01/15 23:52:32;;;;;;;4.80;1.13;;;;;;;;;;10583255;27;20066;-75
2024/01/15 23:57:36;;;;;;;2.80;1.37;;;;;;;;;;10581639;27;20045;-75
